sensor_id;sensor_type;location;lat;lon;timestamp;temperature;humidity
52285;DHT22;38238;53.304;6.606;2022-09-25T00:01:20;10.30;99.90
52285;DHT22;38238;53.304;6.606;2022-09-25T00:03:46;10.30;99.90
52285;DHT22;38238;53.304;6.606;2022-09-25T00:06:18;10.30;99.90
52285;DHT22;38238;53.304;6.606;2022-09-25T00:08:45;10.80;99.90
52285;DHT22;38238;53.304;6.606;2022-09-25T00:11:23;11.30;99.90
52285;DHT22;38238;53.304;6.606;2022-09-25T00:13:50;10.30;99.90
52285;DHT22;38238;53.304;6.606;2022-09-25T00:16:19;10.30;99.90
52285;DHT22;38238;53.304;6.606;2022-09-25T00:18:45;10.30;99.90
52285;DHT22;38238;53.304;6.606;2022-09-25T00:21:30;10.30;99.90
52285;DHT22;38238;53.304;6.606;2022-09-25T00:24:00;10.30;99.90
52285;DHT22;38238;53.304;6.606;2022-09-25T00:26:28;10.30;99.90
52285;DHT22;38238;53.304;6.606;2022-09-25T00:28:55;10.30;99.90
52285;DHT22;38238;53.304;6.606;2022-09-25T00:31:22;10.30;99.90
52285;DHT22;38238;53.304;6.606;2022-09-25T00:33:52;10.50;99.90
52285;DHT22;38238;53.304;6.606;2022-09-25T00:36:19;10.30;99.90
52285;DHT22;38238;53.304;6.606;2022-09-25T00:38:45;10.30;99.90
52285;DHT22;38238;53.304;6.606;2022-09-25T00:41:15;10.30;99.90
52285;DHT22;38238;53.304;6.606;2022-09-25T00:43:46;10.30;99.90
52285;DHT22;38238;53.304;6.606;2022-09-25T00:48:50;10.30;99.90
52285;DHT22;38238;53.304;6.606;2022-09-25T00:51:21;10.30;99.90
52285;DHT22;38238;53.304;6.606;2022-09-25T00:53:56;10.30;99.90
52285;DHT22;38238;53.304;6.606;2022-09-25T00:56:23;10.30;99.90
52285;DHT22;38238;53.304;6.606;2022-09-25T00:58:50;10.80;99.90
52285;DHT22;38238;53.304;6.606;2022-09-25T01:01:15;10.30;99.90
52285;DHT22;38238;53.304;6.606;2022-09-25T01:03:42;10.20;99.90
52285;DHT22;38238;53.304;6.606;2022-09-25T01:06:11;10.20;99.90
52285;DHT22;38238;53.304;6.606;2022-09-25T01:08:38;10.20;99.90
52285;DHT22;38238;53.304;6.606;2022-09-25T01:11:04;10.20;99.90
52285;DHT22;38238;53.304;6.606;2022-09-25T01:13:30;10.10;99.90
52285;DHT22;38238;53.304;6.606;2022-09-25T01:16:12;10.20;99.90
52285;DHT22;38238;53.304;6.606;2022-09-25T01:24:41;10.00;99.90
52285;DHT22;38238;53.304;6.606;2022-09-25T01:27:32;10.00;99.90
52285;DHT22;38238;53.304;6.606;2022-09-25T01:30:11;9.90;99.90
52285;DHT22;38238;53.304;6.606;2022-09-25T01:32:41;9.90;99.90
52285;DHT22;38238;53.304;6.606;2022-09-25T01:38:12;9.90;99.90
52285;DHT22;38238;53.304;6.606;2022-09-25T01:40:45;9.90;99.90
52285;DHT22;38238;53.304;6.606;2022-09-25T01:43:14;10.00;99.90
52285;DHT22;38238;53.304;6.606;2022-09-25T01:45:50;9.90;99.90
52285;DHT22;38238;53.304;6.606;2022-09-25T01:48:21;9.90;99.90
52285;DHT22;38238;53.304;6.606;2022-09-25T01:50:52;9.90;99.90
52285;DHT22;38238;53.304;6.606;2022-09-25T01:53:24;9.90;99.90
52285;DHT22;38238;53.304;6.606;2022-09-25T01:55:59;9.90;99.90
52285;DHT22;38238;53.304;6.606;2022-09-25T01:58:41;9.80;99.90
52285;DHT22;38238;53.304;6.606;2022-09-25T02:01:18;9.80;99.90
52285;DHT22;38238;53.304;6.606;2022-09-25T02:03:55;9.70;99.90
52285;DHT22;38238;53.304;6.606;2022-09-25T02:06:23;9.70;99.90
52285;DHT22;38238;53.304;6.606;2022-09-25T02:09:28;9.70;99.90
52285;DHT22;38238;53.304;6.606;2022-09-25T02:12:00;9.60;99.90
52285;DHT22;38238;53.304;6.606;2022-09-25T02:14:40;9.60;99.90
52285;DHT22;38238;53.304;6.606;2022-09-25T02:17:12;9.50;99.90
52285;DHT22;38238;53.304;6.606;2022-09-25T02:19:59;9.50;99.90
52285;DHT22;38238;53.304;6.606;2022-09-25T02:22:45;9.50;99.90
52285;DHT22;38238;53.304;6.606;2022-09-25T02:25:24;9.40;99.90
52285;DHT22;38238;53.304;6.606;2022-09-25T02:27:52;9.40;99.90
52285;DHT22;38238;53.304;6.606;2022-09-25T02:30:18;9.40;99.90
52285;DHT22;38238;53.304;6.606;2022-09-25T02:32:44;9.30;99.90
52285;DHT22;38238;53.304;6.606;2022-09-25T02:35:10;9.40;99.90
52285;DHT22;38238;53.304;6.606;2022-09-25T02:37:36;9.40;99.90
52285;DHT22;38238;53.304;6.606;2022-09-25T02:40:03;9.40;99.90
52285;DHT22;38238;53.304;6.606;2022-09-25T02:45:22;9.30;99.90
52285;DHT22;38238;53.304;6.606;2022-09-25T02:50:48;9.40;99.90
52285;DHT22;38238;53.304;6.606;2022-09-25T02:53:28;9.30;99.90
52285;DHT22;38238;53.304;6.606;2022-09-25T02:58:53;9.30;99.90
52285;DHT22;38238;53.304;6.606;2022-09-25T03:01:22;9.30;99.90
52285;DHT22;38238;53.304;6.606;2022-09-25T03:03:50;9.30;99.90
52285;DHT22;38238;53.304;6.606;2022-09-25T03:06:19;9.20;99.90
52285;DHT22;38238;53.304;6.606;2022-09-25T03:08:48;9.20;99.90
52285;DHT22;38238;53.304;6.606;2022-09-25T03:11:18;9.20;99.90
52285;DHT22;38238;53.304;6.606;2022-09-25T03:13:44;9.20;99.90
52285;DHT22;38238;53.304;6.606;2022-09-25T03:18:55;9.30;99.90
52285;DHT22;38238;53.304;6.606;2022-09-25T03:21:20;9.30;99.90
52285;DHT22;38238;53.304;6.606;2022-09-25T03:23:46;9.40;99.90
52285;DHT22;38238;53.304;6.606;2022-09-25T03:26:12;9.40;99.90
52285;DHT22;38238;53.304;6.606;2022-09-25T03:28:38;9.50;99.90
52285;DHT22;38238;53.304;6.606;2022-09-25T03:31:09;9.60;99.90
52285;DHT22;38238;53.304;6.606;2022-09-25T03:33:37;9.60;99.90
52285;DHT22;38238;53.304;6.606;2022-09-25T03:36:06;9.60;99.90
52285;DHT22;38238;53.304;6.606;2022-09-25T03:38:34;9.60;99.90
52285;DHT22;38238;53.304;6.606;2022-09-25T03:41:00;9.80;99.90
52285;DHT22;38238;53.304;6.606;2022-09-25T03:43:26;9.60;99.90
52285;DHT22;38238;53.304;6.606;2022-09-25T03:45:52;9.50;99.90
52285;DHT22;38238;53.304;6.606;2022-09-25T03:48:18;9.50;99.90
52285;DHT22;38238;53.304;6.606;2022-09-25T03:50:44;9.50;99.90
52285;DHT22;38238;53.304;6.606;2022-09-25T03:53:11;9.40;99.90
52285;DHT22;38238;53.304;6.606;2022-09-25T03:55:36;9.30;99.90
52285;DHT22;38238;53.304;6.606;2022-09-25T03:58:02;9.20;99.90
52285;DHT22;38238;53.304;6.606;2022-09-25T04:00:27;9.20;99.90
52285;DHT22;38238;53.304;6.606;2022-09-25T04:02:53;9.10;99.90
52285;DHT22;38238;53.304;6.606;2022-09-25T04:05:19;9.20;99.90
52285;DHT22;38238;53.304;6.606;2022-09-25T04:07:45;9.00;99.90
52285;DHT22;38238;53.304;6.606;2022-09-25T04:10:12;9.00;99.90
52285;DHT22;38238;53.304;6.606;2022-09-25T04:12:39;8.90;99.90
52285;DHT22;38238;53.304;6.606;2022-09-25T04:15:07;8.90;99.90
52285;DHT22;38238;53.304;6.606;2022-09-25T04:17:34;8.90;99.90
52285;DHT22;38238;53.304;6.606;2022-09-25T04:20:00;8.80;99.90
52285;DHT22;38238;53.304;6.606;2022-09-25T04:22:26;8.70;99.90
52285;DHT22;38238;53.304;6.606;2022-09-25T04:24:51;8.70;99.90
52285;DHT22;38238;53.304;6.606;2022-09-25T04:27:22;8.70;99.90
52285;DHT22;38238;53.304;6.606;2022-09-25T04:29:48;8.70;99.90
52285;DHT22;38238;53.304;6.606;2022-09-25T04:32:15;8.60;99.90
52285;DHT22;38238;53.304;6.606;2022-09-25T04:34:59;8.60;99.90
52285;DHT22;38238;53.304;6.606;2022-09-25T04:37:25;8.50;99.90
52285;DHT22;38238;53.304;6.606;2022-09-25T04:39:55;8.50;99.90
52285;DHT22;38238;53.304;6.606;2022-09-25T04:42:22;8.50;99.90
52285;DHT22;38238;53.304;6.606;2022-09-25T04:44:55;8.50;99.90
52285;DHT22;38238;53.304;6.606;2022-09-25T04:47:23;8.40;99.90
52285;DHT22;38238;53.304;6.606;2022-09-25T04:49:49;8.40;99.90
52285;DHT22;38238;53.304;6.606;2022-09-25T04:52:16;8.30;99.90
52285;DHT22;38238;53.304;6.606;2022-09-25T04:54:43;8.30;99.90
52285;DHT22;38238;53.304;6.606;2022-09-25T04:57:12;8.40;99.90
52285;DHT22;38238;53.304;6.606;2022-09-25T04:59:38;8.30;99.90
52285;DHT22;38238;53.304;6.606;2022-09-25T05:02:05;8.20;99.90
52285;DHT22;38238;53.304;6.606;2022-09-25T05:04:31;8.20;99.90
52285;DHT22;38238;53.304;6.606;2022-09-25T05:06:56;8.20;99.90
52285;DHT22;38238;53.304;6.606;2022-09-25T05:09:22;8.10;99.90
52285;DHT22;38238;53.304;6.606;2022-09-25T05:11:48;8.10;99.90
52285;DHT22;38238;53.304;6.606;2022-09-25T05:14:13;8.00;99.90
52285;DHT22;38238;53.304;6.606;2022-09-25T05:16:39;8.00;99.90
52285;DHT22;38238;53.304;6.606;2022-09-25T05:19:05;8.00;99.90
52285;DHT22;38238;53.304;6.606;2022-09-25T05:21:30;8.00;99.90
52285;DHT22;38238;53.304;6.606;2022-09-25T05:23:57;8.00;99.90
52285;DHT22;38238;53.304;6.606;2022-09-25T05:26:23;8.00;99.90
52285;DHT22;38238;53.304;6.606;2022-09-25T05:28:49;7.90;99.90
52285;DHT22;38238;53.304;6.606;2022-09-25T05:31:15;8.00;99.90
52285;DHT22;38238;53.304;6.606;2022-09-25T05:33:41;8.00;99.90
52285;DHT22;38238;53.304;6.606;2022-09-25T05:36:08;7.90;99.90
52285;DHT22;38238;53.304;6.606;2022-09-25T05:38:36;8.00;99.90
52285;DHT22;38238;53.304;6.606;2022-09-25T05:41:07;8.00;99.90
52285;DHT22;38238;53.304;6.606;2022-09-25T05:43:38;8.20;99.90
52285;DHT22;38238;53.304;6.606;2022-09-25T05:46:05;8.00;99.90
52285;DHT22;38238;53.304;6.606;2022-09-25T05:48:31;8.00;99.90
52285;DHT22;38238;53.304;6.606;2022-09-25T05:50:57;8.00;99.90
52285;DHT22;38238;53.304;6.606;2022-09-25T05:53:23;8.00;99.90
52285;DHT22;38238;53.304;6.606;2022-09-25T05:58:15;8.00;99.90
52285;DHT22;38238;53.304;6.606;2022-09-25T06:00:41;8.10;99.90
52285;DHT22;38238;53.304;6.606;2022-09-25T06:03:07;8.20;99.90
52285;DHT22;38238;53.304;6.606;2022-09-25T06:05:33;8.10;99.90
52285;DHT22;38238;53.304;6.606;2022-09-25T06:07:58;8.10;99.90
52285;DHT22;38238;53.304;6.606;2022-09-25T06:10:24;8.10;99.90
52285;DHT22;38238;53.304;6.606;2022-09-25T06:12:54;8.20;99.90
52285;DHT22;38238;53.304;6.606;2022-09-25T06:15:21;8.20;99.90
52285;DHT22;38238;53.304;6.606;2022-09-25T06:17:48;8.20;99.90
52285;DHT22;38238;53.304;6.606;2022-09-25T06:20:14;8.20;99.90
52285;DHT22;38238;53.304;6.606;2022-09-25T06:22:40;8.30;99.90
52285;DHT22;38238;53.304;6.606;2022-09-25T06:25:06;8.30;99.90
52285;DHT22;38238;53.304;6.606;2022-09-25T06:27:31;8.30;99.90
52285;DHT22;38238;53.304;6.606;2022-09-25T06:29:58;9.10;99.90
52285;DHT22;38238;53.304;6.606;2022-09-25T06:32:23;8.40;99.90
52285;DHT22;38238;53.304;6.606;2022-09-25T06:34:49;9.30;99.90
52285;DHT22;38238;53.304;6.606;2022-09-25T06:37:15;8.80;99.90
52285;DHT22;38238;53.304;6.606;2022-09-25T06:39:41;8.50;99.90
52285;DHT22;38238;53.304;6.606;2022-09-25T06:42:06;8.60;99.90
52285;DHT22;38238;53.304;6.606;2022-09-25T06:44:32;8.80;99.90
52285;DHT22;38238;53.304;6.606;2022-09-25T06:46:59;8.70;99.90
52285;DHT22;38238;53.304;6.606;2022-09-25T06:49:26;8.80;99.90
52285;DHT22;38238;53.304;6.606;2022-09-25T06:51:52;8.90;99.90
52285;DHT22;38238;53.304;6.606;2022-09-25T06:54:17;8.90;99.90
52285;DHT22;38238;53.304;6.606;2022-09-25T06:56:47;9.00;99.90
52285;DHT22;38238;53.304;6.606;2022-09-25T06:59:12;9.10;99.90
52285;DHT22;38238;53.304;6.606;2022-09-25T07:01:38;9.30;99.90
52285;DHT22;38238;53.304;6.606;2022-09-25T07:04:04;9.50;99.90
52285;DHT22;38238;53.304;6.606;2022-09-25T07:06:29;9.40;99.90
52285;DHT22;38238;53.304;6.606;2022-09-25T07:08:57;9.50;99.90
52285;DHT22;38238;53.304;6.606;2022-09-25T07:11:25;10.60;99.90
52285;DHT22;38238;53.304;6.606;2022-09-25T07:13:51;10.40;99.90
52285;DHT22;38238;53.304;6.606;2022-09-25T07:16:21;9.90;99.90
52285;DHT22;38238;53.304;6.606;2022-09-25T07:18:47;10.00;99.90
52285;DHT22;38238;53.304;6.606;2022-09-25T07:21:15;10.20;99.90
52285;DHT22;38238;53.304;6.606;2022-09-25T07:23:42;10.30;99.90
52285;DHT22;38238;53.304;6.606;2022-09-25T07:26:19;10.30;99.90
52285;DHT22;38238;53.304;6.606;2022-09-25T07:28:55;11.50;99.90
52285;DHT22;38238;53.304;6.606;2022-09-25T07:31:24;10.60;99.90
52285;DHT22;38238;53.304;6.606;2022-09-25T07:33:50;10.70;99.90
52285;DHT22;38238;53.304;6.606;2022-09-25T07:36:17;10.80;99.90
52285;DHT22;38238;53.304;6.606;2022-09-25T07:38:47;10.90;99.90
52285;DHT22;38238;53.304;6.606;2022-09-25T07:41:13;11.00;99.90
52285;DHT22;38238;53.304;6.606;2022-09-25T07:43:38;11.20;99.90
52285;DHT22;38238;53.304;6.606;2022-09-25T07:46:05;11.30;99.90
52285;DHT22;38238;53.304;6.606;2022-09-25T07:48:31;11.40;99.90
52285;DHT22;38238;53.304;6.606;2022-09-25T07:51:04;11.40;99.90
52285;DHT22;38238;53.304;6.606;2022-09-25T07:53:30;11.60;99.90
52285;DHT22;38238;53.304;6.606;2022-09-25T07:56:00;11.70;99.90
52285;DHT22;38238;53.304;6.606;2022-09-25T07:58:26;11.80;99.90
52285;DHT22;38238;53.304;6.606;2022-09-25T08:00:53;12.00;99.90
52285;DHT22;38238;53.304;6.606;2022-09-25T08:03:23;12.10;99.90
52285;DHT22;38238;53.304;6.606;2022-09-25T08:06:03;12.20;99.90
52285;DHT22;38238;53.304;6.606;2022-09-25T08:08:29;12.40;99.90
52285;DHT22;38238;53.304;6.606;2022-09-25T08:11:03;12.50;99.90
52285;DHT22;38238;53.304;6.606;2022-09-25T08:13:31;12.70;99.90
52285;DHT22;38238;53.304;6.606;2022-09-25T08:15:58;12.90;99.90
52285;DHT22;38238;53.304;6.606;2022-09-25T08:18:23;13.10;99.90
52285;DHT22;38238;53.304;6.606;2022-09-25T08:20:49;13.10;99.90
52285;DHT22;38238;53.304;6.606;2022-09-25T08:23:16;13.30;99.90
52285;DHT22;38238;53.304;6.606;2022-09-25T08:25:46;13.40;99.90
52285;DHT22;38238;53.304;6.606;2022-09-25T08:28:12;13.60;99.90
52285;DHT22;38238;53.304;6.606;2022-09-25T08:30:38;13.70;99.90
52285;DHT22;38238;53.304;6.606;2022-09-25T08:33:03;13.40;99.90
52285;DHT22;38238;53.304;6.606;2022-09-25T08:35:34;13.90;99.90
52285;DHT22;38238;53.304;6.606;2022-09-25T08:38:00;13.90;99.90
52285;DHT22;38238;53.304;6.606;2022-09-25T08:40:27;13.90;99.90
52285;DHT22;38238;53.304;6.606;2022-09-25T08:42:56;14.00;99.90
52285;DHT22;38238;53.304;6.606;2022-09-25T08:45:42;14.20;99.90
52285;DHT22;38238;53.304;6.606;2022-09-25T08:48:35;14.30;99.90
52285;DHT22;38238;53.304;6.606;2022-09-25T08:51:20;14.50;99.90
52285;DHT22;38238;53.304;6.606;2022-09-25T08:53:46;14.60;99.90
52285;DHT22;38238;53.304;6.606;2022-09-25T08:56:13;14.60;99.90
52285;DHT22;38238;53.304;6.606;2022-09-25T09:01:41;14.30;99.90
52285;DHT22;38238;53.304;6.606;2022-09-25T09:04:18;14.10;99.90
52285;DHT22;38238;53.304;6.606;2022-09-25T09:06:50;14.10;99.90
52285;DHT22;38238;53.304;6.606;2022-09-25T09:09:31;14.10;99.90
52285;DHT22;38238;53.304;6.606;2022-09-25T09:12:12;14.10;99.90
52285;DHT22;38238;53.304;6.606;2022-09-25T09:14:50;14.10;99.90
52285;DHT22;38238;53.304;6.606;2022-09-25T09:17:23;13.90;99.90
52285;DHT22;38238;53.304;6.606;2022-09-25T09:20:00;13.50;99.90
52285;DHT22;38238;53.304;6.606;2022-09-25T09:22:40;12.90;99.90
52285;DHT22;38238;53.304;6.606;2022-09-25T09:28:05;12.50;99.90
52285;DHT22;38238;53.304;6.606;2022-09-25T09:31:28;12.40;99.90
52285;DHT22;38238;53.304;6.606;2022-09-25T09:36:43;12.50;99.90
52285;DHT22;38238;53.304;6.606;2022-09-25T09:39:33;12.50;99.90
52285;DHT22;38238;53.304;6.606;2022-09-25T09:50:38;12.70;99.90
52285;DHT22;38238;53.304;6.606;2022-09-25T09:53:12;12.80;99.90
52285;DHT22;38238;53.304;6.606;2022-09-25T09:55:47;13.00;99.90
52285;DHT22;38238;53.304;6.606;2022-09-25T09:58:27;13.50;99.90
52285;DHT22;38238;53.304;6.606;2022-09-25T10:00:56;14.60;99.90
52285;DHT22;38238;53.304;6.606;2022-09-25T10:03:24;15.60;99.90
52285;DHT22;38238;53.304;6.606;2022-09-25T10:05:56;16.00;99.90
52285;DHT22;38238;53.304;6.606;2022-09-25T10:08:23;16.40;99.90
52285;DHT22;38238;53.304;6.606;2022-09-25T10:10:51;16.40;99.90
52285;DHT22;38238;53.304;6.606;2022-09-25T10:13:25;16.20;99.90
52285;DHT22;38238;53.304;6.606;2022-09-25T10:16:05;16.00;99.90
52285;DHT22;38238;53.304;6.606;2022-09-25T10:18:42;15.70;99.90
52285;DHT22;38238;53.304;6.606;2022-09-25T10:21:39;15.50;99.90
52285;DHT22;38238;53.304;6.606;2022-09-25T10:24:06;15.40;99.90
52285;DHT22;38238;53.304;6.606;2022-09-25T10:26:39;15.30;99.90
52285;DHT22;38238;53.304;6.606;2022-09-25T10:31:46;15.30;99.90
52285;DHT22;38238;53.304;6.606;2022-09-25T10:36:49;15.20;99.90
52285;DHT22;38238;53.304;6.606;2022-09-25T10:39:36;15.20;99.90
52285;DHT22;38238;53.304;6.606;2022-09-25T10:42:33;15.20;99.90
52285;DHT22;38238;53.304;6.606;2022-09-25T10:45:15;15.30;99.90
52285;DHT22;38238;53.304;6.606;2022-09-25T10:47:50;15.30;99.90
52285;DHT22;38238;53.304;6.606;2022-09-25T10:50:36;15.20;99.90
52285;DHT22;38238;53.304;6.606;2022-09-25T10:53:03;15.10;99.90
52285;DHT22;38238;53.304;6.606;2022-09-25T10:55:32;15.00;99.90
52285;DHT22;38238;53.304;6.606;2022-09-25T10:58:33;14.90;99.90
52285;DHT22;38238;53.304;6.606;2022-09-25T11:01:01;14.90;99.90
52285;DHT22;38238;53.304;6.606;2022-09-25T11:03:37;15.10;99.90
52285;DHT22;38238;53.304;6.606;2022-09-25T11:06:08;15.30;99.90
52285;DHT22;38238;53.304;6.606;2022-09-25T11:08:37;15.80;99.90
52285;DHT22;38238;53.304;6.606;2022-09-25T11:11:05;16.60;99.90
52285;DHT22;38238;53.304;6.606;2022-09-25T11:13:45;16.90;99.90
52285;DHT22;38238;53.304;6.606;2022-09-25T11:16:12;16.80;99.90
52285;DHT22;38238;53.304;6.606;2022-09-25T11:18:48;16.40;99.90
52285;DHT22;38238;53.304;6.606;2022-09-25T11:26:22;15.40;99.90
52285;DHT22;38238;53.304;6.606;2022-09-25T11:31:31;15.50;99.90
52285;DHT22;38238;53.304;6.606;2022-09-25T11:39:42;15.40;99.90
52285;DHT22;38238;53.304;6.606;2022-09-25T11:45:22;15.30;99.90
52285;DHT22;38238;53.304;6.606;2022-09-25T11:47:55;15.20;99.90
52285;DHT22;38238;53.304;6.606;2022-09-25T11:50:31;15.20;99.90
52285;DHT22;38238;53.304;6.606;2022-09-25T11:58:36;15.00;99.90
52285;DHT22;38238;53.304;6.606;2022-09-25T12:01:18;15.00;99.90
52285;DHT22;38238;53.304;6.606;2022-09-25T12:07:03;14.90;99.90
52285;DHT22;38238;53.304;6.606;2022-09-25T12:12:42;15.00;99.90
52285;DHT22;38238;53.304;6.606;2022-09-25T12:18:23;15.20;99.90
52285;DHT22;38238;53.304;6.606;2022-09-25T12:21:03;15.30;99.90
52285;DHT22;38238;53.304;6.606;2022-09-25T12:23:31;15.30;99.90
52285;DHT22;38238;53.304;6.606;2022-09-25T12:26:10;15.50;99.90
52285;DHT22;38238;53.304;6.606;2022-09-25T12:32:17;15.80;99.90
52285;DHT22;38238;53.304;6.606;2022-09-25T12:37:50;15.90;99.90
52285;DHT22;38238;53.304;6.606;2022-09-25T12:43:01;15.80;99.90
52285;DHT22;38238;53.304;6.606;2022-09-25T12:45:46;15.70;99.90
52285;DHT22;38238;53.304;6.606;2022-09-25T12:48:32;15.80;99.90
52285;DHT22;38238;53.304;6.606;2022-09-25T12:53:57;16.00;99.90
52285;DHT22;38238;53.304;6.606;2022-09-25T12:57:12;15.90;99.90
52285;DHT22;38238;53.304;6.606;2022-09-25T12:59:24;15.60;99.90
52285;DHT22;38238;53.304;6.606;2022-09-25T13:02:15;15.60;99.90
52285;DHT22;38238;53.304;6.606;2022-09-25T13:05:11;15.60;99.90
52285;DHT22;38238;53.304;6.606;2022-09-25T13:07:54;15.80;99.90
52285;DHT22;38238;53.304;6.606;2022-09-25T13:10:38;15.90;99.90
52285;DHT22;38238;53.304;6.606;2022-09-25T13:13:14;16.10;99.90
52285;DHT22;38238;53.304;6.606;2022-09-25T13:15:47;16.10;99.90
52285;DHT22;38238;53.304;6.606;2022-09-25T13:18:23;16.10;99.90
52285;DHT22;38238;53.304;6.606;2022-09-25T13:23:29;16.00;99.90
52285;DHT22;38238;53.304;6.606;2022-09-25T13:25:59;15.90;99.90
52285;DHT22;38238;53.304;6.606;2022-09-25T13:28:38;15.80;99.90
52285;DHT22;38238;53.304;6.606;2022-09-25T13:31:19;15.90;99.90
52285;DHT22;38238;53.304;6.606;2022-09-25T13:38:50;15.80;99.90
52285;DHT22;38238;53.304;6.606;2022-09-25T13:41:49;15.80;99.90
52285;DHT22;38238;53.304;6.606;2022-09-25T13:55:14;15.50;99.90
52285;DHT22;38238;53.304;6.606;2022-09-25T14:00:25;15.90;99.90
52285;DHT22;38238;53.304;6.606;2022-09-25T14:02:55;16.10;99.90
52285;DHT22;38238;53.304;6.606;2022-09-25T14:05:28;16.30;99.90
52285;DHT22;38238;53.304;6.606;2022-09-25T14:08:10;16.30;99.90
52285;DHT22;38238;53.304;6.606;2022-09-25T14:10:42;16.30;99.90
52285;DHT22;38238;53.304;6.606;2022-09-25T14:13:12;16.40;99.90
52285;DHT22;38238;53.304;6.606;2022-09-25T14:15:38;16.40;99.90
52285;DHT22;38238;53.304;6.606;2022-09-25T14:18:11;16.40;99.90
52285;DHT22;38238;53.304;6.606;2022-09-25T14:20:41;16.50;99.90
52285;DHT22;38238;53.304;6.606;2022-09-25T14:25:37;16.80;99.90
52285;DHT22;38238;53.304;6.606;2022-09-25T14:28:30;16.70;99.90
52285;DHT22;38238;53.304;6.606;2022-09-25T14:33:54;16.30;99.80
52285;DHT22;38238;53.304;6.606;2022-09-25T14:42:42;15.80;99.90
52285;DHT22;38238;53.304;6.606;2022-09-25T14:45:33;15.60;99.90
52285;DHT22;38238;53.304;6.606;2022-09-25T14:48:05;15.50;99.90
52285;DHT22;38238;53.304;6.606;2022-09-25T14:50:52;15.60;99.90
52285;DHT22;38238;53.304;6.606;2022-09-25T14:53:29;15.80;99.90
52285;DHT22;38238;53.304;6.606;2022-09-25T14:55:56;16.00;99.90
52285;DHT22;38238;53.304;6.606;2022-09-25T14:58:27;16.00;99.90
52285;DHT22;38238;53.304;6.606;2022-09-25T15:00:56;16.10;99.90
52285;DHT22;38238;53.304;6.606;2022-09-25T15:03:28;16.00;99.90
52285;DHT22;38238;53.304;6.606;2022-09-25T15:05:59;15.90;99.90
52285;DHT22;38238;53.304;6.606;2022-09-25T15:08:36;15.80;99.90
52285;DHT22;38238;53.304;6.606;2022-09-25T15:11:12;15.80;99.90
52285;DHT22;38238;53.304;6.606;2022-09-25T15:13:39;15.70;99.90
52285;DHT22;38238;53.304;6.606;2022-09-25T15:16:06;15.70;99.90
52285;DHT22;38238;53.304;6.606;2022-09-25T15:18:55;15.80;99.90
52285;DHT22;38238;53.304;6.606;2022-09-25T15:21:33;15.90;99.90
52285;DHT22;38238;53.304;6.606;2022-09-25T15:24:11;16.10;99.90
52285;DHT22;38238;53.304;6.606;2022-09-25T15:26:49;16.20;99.90
52285;DHT22;38238;53.304;6.606;2022-09-25T15:29:19;16.30;99.90
52285;DHT22;38238;53.304;6.606;2022-09-25T15:31:46;16.20;99.90
52285;DHT22;38238;53.304;6.606;2022-09-25T15:34:23;16.10;99.90
52285;DHT22;38238;53.304;6.606;2022-09-25T15:36:52;16.00;99.90
52285;DHT22;38238;53.304;6.606;2022-09-25T15:39:23;16.00;99.90
52285;DHT22;38238;53.304;6.606;2022-09-25T15:41:49;15.90;99.90
52285;DHT22;38238;53.304;6.606;2022-09-25T15:44:21;15.80;99.90
52285;DHT22;38238;53.304;6.606;2022-09-25T15:46:52;15.80;99.70
52285;DHT22;38238;53.304;6.606;2022-09-25T15:49:28;15.80;99.50
52285;DHT22;38238;53.304;6.606;2022-09-25T15:54:44;15.80;99.70
52285;DHT22;38238;53.304;6.606;2022-09-25T15:57:30;15.80;99.60
52285;DHT22;38238;53.304;6.606;2022-09-25T15:59:58;15.60;99.50
52285;DHT22;38238;53.304;6.606;2022-09-25T16:02:57;15.50;99.70
52285;DHT22;38238;53.304;6.606;2022-09-25T16:05:45;15.30;99.80
52285;DHT22;38238;53.304;6.606;2022-09-25T16:08:26;15.20;99.90
52285;DHT22;38238;53.304;6.606;2022-09-25T16:13:40;15.00;99.90
52285;DHT22;38238;53.304;6.606;2022-09-25T16:16:28;15.00;99.90
52285;DHT22;38238;53.304;6.606;2022-09-25T16:21:41;14.80;99.90
52285;DHT22;38238;53.304;6.606;2022-09-25T16:24:22;14.80;99.90
52285;DHT22;38238;53.304;6.606;2022-09-25T16:26:57;14.70;99.90
52285;DHT22;38238;53.304;6.606;2022-09-25T16:29:26;14.70;99.90
52285;DHT22;38238;53.304;6.606;2022-09-25T16:31:52;14.60;99.90
52285;DHT22;38238;53.304;6.606;2022-09-25T16:34:27;14.50;99.90
52285;DHT22;38238;53.304;6.606;2022-09-25T16:37:02;14.50;99.90
52285;DHT22;38238;53.304;6.606;2022-09-25T16:39:36;14.50;99.90
52285;DHT22;38238;53.304;6.606;2022-09-25T16:44:47;14.40;99.90
52285;DHT22;38238;53.304;6.606;2022-09-25T16:47:19;14.40;99.90
52285;DHT22;38238;53.304;6.606;2022-09-25T16:49:48;14.30;99.90
52285;DHT22;38238;53.304;6.606;2022-09-25T16:52:22;14.30;99.90
52285;DHT22;38238;53.304;6.606;2022-09-25T16:54:50;14.30;99.90
52285;DHT22;38238;53.304;6.606;2022-09-25T16:57:22;14.20;99.90
52285;DHT22;38238;53.304;6.606;2022-09-25T16:59:49;14.20;99.90
52285;DHT22;38238;53.304;6.606;2022-09-25T17:05:04;14.20;99.90
52285;DHT22;38238;53.304;6.606;2022-09-25T17:07:30;14.20;99.90
52285;DHT22;38238;53.304;6.606;2022-09-25T17:09:56;14.30;99.90
52285;DHT22;38238;53.304;6.606;2022-09-25T17:12:24;14.30;99.90
52285;DHT22;38238;53.304;6.606;2022-09-25T17:14:51;14.30;99.90
52285;DHT22;38238;53.304;6.606;2022-09-25T17:17:19;14.30;99.90
52285;DHT22;38238;53.304;6.606;2022-09-25T17:19:46;14.30;99.90
52285;DHT22;38238;53.304;6.606;2022-09-25T17:22:12;14.30;99.90
52285;DHT22;38238;53.304;6.606;2022-09-25T17:24:38;14.30;99.90
52285;DHT22;38238;53.304;6.606;2022-09-25T17:27:15;14.30;99.90
52285;DHT22;38238;53.304;6.606;2022-09-25T17:29:41;14.30;99.90
52285;DHT22;38238;53.304;6.606;2022-09-25T17:32:14;14.30;99.90
52285;DHT22;38238;53.304;6.606;2022-09-25T17:34:44;14.30;99.90
52285;DHT22;38238;53.304;6.606;2022-09-25T17:37:10;14.30;99.90
52285;DHT22;38238;53.304;6.606;2022-09-25T17:39:37;14.20;99.90
52285;DHT22;38238;53.304;6.606;2022-09-25T17:42:03;14.10;99.90
52285;DHT22;38238;53.304;6.606;2022-09-25T17:44:29;14.00;99.90
52285;DHT22;38238;53.304;6.606;2022-09-25T17:46:54;14.00;99.90
52285;DHT22;38238;53.304;6.606;2022-09-25T17:49:21;13.90;99.90
52285;DHT22;38238;53.304;6.606;2022-09-25T17:51:48;13.90;99.90
52285;DHT22;38238;53.304;6.606;2022-09-25T17:54:14;13.80;99.90
52285;DHT22;38238;53.304;6.606;2022-09-25T17:56:42;13.70;99.90
52285;DHT22;38238;53.304;6.606;2022-09-25T17:59:09;13.70;99.90
52285;DHT22;38238;53.304;6.606;2022-09-25T18:01:36;13.60;99.90
52285;DHT22;38238;53.304;6.606;2022-09-25T18:04:15;13.60;99.90
52285;DHT22;38238;53.304;6.606;2022-09-25T18:06:42;13.40;99.90
52285;DHT22;38238;53.304;6.606;2022-09-25T18:09:08;13.40;99.90
52285;DHT22;38238;53.304;6.606;2022-09-25T18:11:34;13.30;99.90
52285;DHT22;38238;53.304;6.606;2022-09-25T18:14:00;13.20;99.90
52285;DHT22;38238;53.304;6.606;2022-09-25T18:16:29;13.20;99.90
52285;DHT22;38238;53.304;6.606;2022-09-25T18:18:55;13.10;99.90